createdAt,value
2022-11-22T00:01:19.188Z,3.6
2022-11-22T00:04:19.735Z,4.9125
2022-11-22T00:07:20.106Z,3.45
2022-11-22T00:11:17.075Z,3.1375
2022-11-22T00:14:16.803Z,2.1625
2022-11-22T00:17:17.044Z,0.9000000000000001
2022-11-22T00:21:16.189Z,1.2625
2022-11-22T00:24:16.470Z,0.6125
2022-11-22T00:27:16.524Z,1.125
2022-11-22T00:31:16.482Z,2.675
2022-11-22T00:34:25.042Z,1.75
2022-11-22T00:37:16.608Z,1.0375
2022-11-22T00:41:15.925Z,1.1125
2022-11-22T00:44:16.210Z,1.8375
2022-11-22T00:47:16.213Z,1.175
2022-11-22T00:51:16.309Z,2.275
2022-11-22T00:54:17.639Z,0.17500000000000002
2022-11-22T00:57:16.793Z,0.5
2022-11-22T01:01:16.029Z,3.75
2022-11-22T01:04:17.999Z,0.2
2022-11-22T01:07:16.393Z,0.225
2022-11-22T01:11:18.527Z,1.3
2022-11-22T01:14:18.233Z,0.275
2022-11-22T01:17:17.267Z,0.5
2022-11-22T01:21:17.301Z,0.6875
2022-11-22T01:24:16.390Z,0.2875
2022-11-22T01:27:16.562Z,2.1125000000000003
2022-11-22T01:31:16.635Z,2.8125
2022-11-22T01:34:16.522Z,0.95
2022-11-22T01:37:16.800Z,3.45
2022-11-22T01:41:15.897Z,2.15
2022-11-22T01:44:19.919Z,2.5
2022-11-22T01:47:20.197Z,0.1
2022-11-22T01:51:23.985Z,2.7375
2022-11-22T01:54:21.581Z,0.4625
2022-11-22T01:57:21.781Z,5
2022-11-22T02:01:16.037Z,1.2
2022-11-22T02:04:18.219Z,1.225
2022-11-22T02:07:22.015Z,0.12499999999999999
2022-11-22T02:11:19.303Z,0.6125
2022-11-22T02:14:23.065Z,0.575
2022-11-22T02:17:17.020Z,1.1875
2022-11-22T02:21:16.628Z,0.575
2022-11-22T02:24:22.464Z,0.8875000000000001
2022-11-22T02:27:18.278Z,1.2375
2022-11-22T02:31:47.747Z,0.46249999999999997
2022-11-22T02:34:16.313Z,0.175
2022-11-22T02:37:20.005Z,0.32499999999999996
2022-11-22T02:41:16.780Z,5.362500000000001
2022-11-22T02:44:18.610Z,0.32499999999999996
2022-11-22T02:47:16.294Z,1.55
2022-11-22T02:51:18.216Z,0.275
2022-11-22T02:54:16.649Z,0.4
2022-11-22T02:57:16.516Z,0.25
2022-11-22T03:01:16.056Z,0.875
2022-11-22T03:04:25.262Z,0.4625
2022-11-22T03:07:17.456Z,2.6125000000000003
2022-11-22T03:11:16.643Z,0.9
2022-11-22T03:14:16.863Z,0.26249999999999996
2022-11-22T03:17:16.850Z,0.17500000000000002
2022-11-22T03:21:17.106Z,1.25
2022-11-22T03:24:17.580Z,0.7000000000000001
2022-11-22T03:27:18.098Z,2
2022-11-22T03:31:16.746Z,0.85
2022-11-22T03:34:17.426Z,1.0875
2022-11-22T03:37:17.291Z,0.6000000000000001
2022-11-22T03:41:15.693Z,0.625
2022-11-22T03:44:16.232Z,1.7500000000000002
2022-11-22T03:47:16.306Z,0.7
2022-11-22T03:51:16.443Z,0.6499999999999999
2022-11-22T03:54:16.464Z,0.4
2022-11-22T03:57:17.576Z,3.1875
2022-11-22T04:01:17.028Z,1.95
2022-11-22T04:04:16.716Z,2.675
2022-11-22T04:07:16.965Z,4.2375
2022-11-22T04:11:16.756Z,6.1875
2022-11-22T04:15:21.206Z,3.7
2022-11-22T04:17:42.723Z,6.875
2022-11-22T04:21:48.591Z,11.0125
2022-11-22T04:25:21.652Z,10.55
2022-11-22T04:27:16.979Z,13.6
2022-11-22T04:41:17.254Z,17.275
2022-11-22T04:44:49.154Z,23.237499999999997
2022-11-22T04:48:08.570Z,10.9875
2022-11-22T05:01:15.926Z,9.4375
2022-11-22T05:04:16.346Z,10.15
2022-11-22T05:07:16.522Z,10.674999999999999
2022-11-22T05:11:16.937Z,9.0625
2022-11-22T05:14:18.415Z,3.0250000000000004
2022-11-22T05:17:17.151Z,6.4375
2022-11-22T05:21:16.474Z,6.025
2022-11-22T05:24:16.681Z,10.6375
2022-11-22T05:27:18.088Z,10.5
2022-11-22T05:31:19.206Z,10.975
2022-11-22T05:34:17.056Z,6.55
2022-11-22T05:37:16.946Z,15.287500000000001
2022-11-22T05:41:17.739Z,7.25
2022-11-22T05:44:16.759Z,7.387499999999999
2022-11-22T05:47:16.460Z,7.7125
2022-11-22T05:51:18.995Z,8.8625
2022-11-22T05:54:16.887Z,4.3125
2022-11-22T05:57:16.832Z,6.7375
2022-11-22T06:01:19.503Z,3.2
2022-11-22T06:04:18.051Z,1.95
2022-11-22T06:07:17.773Z,1.7499999999999998
2022-11-22T06:11:18.262Z,2.5625
2022-11-22T06:14:16.459Z,2.1750000000000003
2022-11-22T06:17:16.420Z,10.3375
2022-11-22T06:21:18.336Z,7.8500000000000005
2022-11-22T06:24:17.134Z,9.65
2022-11-22T06:27:17.002Z,11.9875
2022-11-22T06:31:18.180Z,12.3375
2022-11-22T06:34:17.414Z,10.9125
2022-11-22T06:37:18.012Z,11.399999999999999
2022-11-22T06:41:19.488Z,13.325
2022-11-22T06:44:16.834Z,10.825
2022-11-22T06:47:17.692Z,6.225
2022-11-22T06:51:18.257Z,20.175
2022-11-22T06:54:16.911Z,8.925
2022-11-22T06:57:16.832Z,15.775
2022-11-22T07:01:18.704Z,16.6875
2022-11-22T07:04:16.608Z,9.1875
2022-11-22T07:07:16.673Z,16.175
2022-11-22T07:11:17.722Z,18.1
2022-11-22T07:14:16.362Z,9.475000000000001
2022-11-22T07:17:16.139Z,8.5125
2022-11-22T07:21:18.254Z,16.55
2022-11-22T07:24:16.854Z,6.050000000000001
2022-11-22T07:27:16.329Z,13.712500000000002
2022-11-22T07:31:19.443Z,12.6875
2022-11-22T07:34:18.421Z,19.1375
2022-11-22T07:37:17.058Z,15.1
2022-11-22T07:41:17.618Z,13.999999999999998
2022-11-22T07:44:39.048Z,10.375
2022-11-22T07:47:22.587Z,8.6
2022-11-22T07:51:16.560Z,7.475
2022-11-22T07:54:16.352Z,7
2022-11-22T07:57:16.633Z,12.9375
2022-11-22T08:01:18.719Z,12.8875
2022-11-22T08:04:18.049Z,10.8375
2022-11-22T08:07:19.876Z,10.2125
2022-11-22T08:11:16.358Z,8.8125
2022-11-22T08:14:16.806Z,8.9125
2022-11-22T08:17:16.693Z,15.375
2022-11-22T08:21:17.659Z,8.175
2022-11-22T08:24:16.644Z,7.5874999999999995
2022-11-22T08:27:16.348Z,4.4625
2022-11-22T08:31:18.249Z,7.45
2022-11-22T08:34:16.745Z,3.6
2022-11-22T08:37:16.865Z,7.7749999999999995
2022-11-22T08:51:17.256Z,5.5875
2022-11-22T08:54:16.642Z,3.5125
2022-11-22T08:57:16.692Z,1.1625
2022-11-22T09:01:18.018Z,4.1
2022-11-22T09:04:17.034Z,2.0875
2022-11-22T09:11:18.476Z,3.875
2022-11-22T09:14:16.922Z,3.4000000000000004
2022-11-22T09:17:18.296Z,1.7875
2022-11-22T09:21:18.853Z,0.8375
2022-11-22T09:24:17.681Z,2.575
2022-11-22T09:27:17.099Z,3.4499999999999997
2022-11-22T09:31:18.991Z,2.3625
2022-11-22T09:34:16.716Z,2.875
2022-11-22T09:37:18.911Z,2.225
2022-11-22T09:41:28.470Z,2.075
2022-11-22T09:44:24.293Z,1.7625000000000002
2022-11-22T09:47:28.584Z,3.7
2022-11-22T09:51:25.133Z,3
2022-11-22T09:54:24.757Z,3.1875
2022-11-22T09:57:23.290Z,2.625
2022-11-22T10:01:22.183Z,4.9125
2022-11-22T10:04:21.584Z,5.112500000000001
2022-11-22T10:07:21.949Z,4.8125
2022-11-22T10:11:32.171Z,6.637500000000001
2022-11-22T10:14:31.456Z,2.2875
2022-11-22T10:17:27.517Z,3.7375000000000003
2022-11-22T10:21:18.259Z,1.7875
2022-11-22T10:24:17.756Z,2.05
2022-11-22T10:27:16.561Z,4.6375
2022-11-22T10:31:29.413Z,3.3125
2022-11-22T10:34:27.902Z,1.7750000000000001
2022-11-22T10:37:29.712Z,0.6625000000000001
2022-11-22T10:41:30.611Z,3.05
2022-11-22T10:44:29.970Z,2.225
2022-11-22T10:47:34.347Z,1.5250000000000001
2022-11-22T10:51:27.291Z,1.3375
2022-11-22T10:54:26.719Z,2.125
2022-11-22T10:57:24.824Z,1.45
2022-11-22T11:11:17.992Z,1.5
2022-11-22T11:14:25.967Z,2.7625
2022-11-22T11:17:22.837Z,0.775
2022-11-22T11:21:29.881Z,3.25
2022-11-22T11:24:23.442Z,0.21250000000000002
2022-11-22T11:27:29.940Z,1.6749999999999998
2022-11-22T11:31:18.662Z,2.425
2022-11-22T11:34:23.168Z,10.2
2022-11-22T11:37:23.174Z,11.525
2022-11-22T11:41:23.541Z,3.65
2022-11-22T11:44:27.048Z,1.2249999999999999
2022-11-22T11:47:19.181Z,2.9625
2022-11-22T11:51:21.752Z,1.6875
2022-11-22T11:54:19.357Z,4.025
2022-11-22T11:57:27.881Z,2.8625
2022-11-22T12:01:19.077Z,2.225
2022-11-22T12:04:23.210Z,4.1125
2022-11-22T12:07:19.399Z,3.3375000000000004
2022-11-22T12:11:22.324Z,3.6625
2022-11-22T12:14:27.847Z,4.825
2022-11-22T12:17:25.598Z,2.1875
2022-11-22T12:21:25.505Z,1.6
2022-11-22T12:24:48.460Z,3.05
2022-11-22T12:27:16.813Z,4.7875
2022-11-22T12:31:27.805Z,6.8125
2022-11-22T12:34:23.742Z,8.875
2022-11-22T12:37:21.717Z,4.7125
2022-11-22T12:41:20.477Z,5.762499999999999
2022-11-22T12:44:20.146Z,5.2125
2022-11-22T12:47:23.271Z,4.6375
2022-11-22T12:51:25.553Z,11.462499999999999
2022-11-22T12:54:22.454Z,7.0625
2022-11-22T12:57:28.119Z,10.5375
2022-11-22T13:01:22.062Z,9.3125
2022-11-22T13:04:24.648Z,8.6375
2022-11-22T13:07:25.112Z,4.6
2022-11-22T13:11:22.619Z,6.05
2022-11-22T13:14:22.458Z,7.2124999999999995
2022-11-22T13:17:17.145Z,8.262500000000001
2022-11-22T13:21:25.961Z,8.712499999999999
2022-11-22T13:24:33.147Z,2.6875
2022-11-22T13:27:23.505Z,8.5125
2022-11-22T13:31:18.668Z,6.512499999999999
2022-11-22T13:34:24.838Z,2.8499999999999996
2022-11-22T13:37:16.885Z,4.7875
2022-11-22T13:41:26.018Z,10.8625
2022-11-22T13:44:26.509Z,12.012500000000001
2022-11-22T13:47:49.989Z,19.975
2022-11-22T13:51:50.855Z,10.5875
2022-11-22T13:55:29.397Z,6.125
2022-11-22T13:57:27.705Z,4.5
2022-11-22T14:01:58.174Z,4.675
2022-11-22T14:04:26.729Z,13.1375
2022-11-22T14:07:30.442Z,5.862500000000001
2022-11-22T14:11:39.093Z,8.9625
2022-11-22T14:14:28.961Z,7.1875
2022-11-22T14:17:24.540Z,7.875
2022-11-22T14:21:38.647Z,4.725
2022-11-22T14:24:31.856Z,8.3625
2022-11-22T14:27:30.132Z,7.725
2022-11-22T14:31:22.434Z,8.024999999999999
2022-11-22T14:34:20.125Z,10.375
2022-11-22T14:37:43.337Z,5.1875
2022-11-22T14:41:49.772Z,9.3875
2022-11-22T14:44:20.474Z,1.7375
2022-11-22T14:47:18.382Z,8.362499999999999
2022-11-22T14:51:29.205Z,6.949999999999999
2022-11-22T14:54:24.655Z,7.3875
2022-11-22T14:57:21.512Z,12.125
2022-11-22T15:01:34.518Z,5.5
2022-11-22T15:11:34.951Z,10.600000000000001
2022-11-22T16:01:20.094Z,3.7749999999999995
2022-11-22T16:04:22.060Z,8.8375
2022-11-22T16:07:27.189Z,4.4875
2022-11-22T16:11:19.886Z,8.6375
2022-11-22T16:14:41.778Z,8.2
2022-11-22T16:17:23.461Z,7.374999999999999
2022-11-22T16:21:22.524Z,5.862500000000001
2022-11-22T16:24:18.184Z,7.7
2022-11-22T16:27:17.928Z,9.125
2022-11-22T16:31:21.329Z,8.5625
2022-11-22T16:34:18.027Z,2.6125
2022-11-22T16:37:25.629Z,5.05
2022-11-22T16:41:19.939Z,3.2125000000000004
2022-11-22T16:44:18.443Z,4.6125
2022-11-22T16:47:18.963Z,9.625
2022-11-22T16:51:20.909Z,3.9499999999999997
2022-11-22T16:54:19.387Z,5.737500000000001
2022-11-22T16:57:17.173Z,10.125
2022-11-22T17:01:20.531Z,8.6375
2022-11-22T17:04:22.305Z,1.8625
2022-11-22T17:07:17.301Z,6.2875
2022-11-22T17:11:18.640Z,3.425
2022-11-22T17:14:18.262Z,5.512499999999999
2022-11-22T17:17:16.855Z,6.949999999999999
2022-11-22T17:21:24.046Z,4.487500000000001
2022-11-22T17:24:20.094Z,4.75
2022-11-22T17:27:16.897Z,3.8374999999999995
2022-11-22T17:31:18.606Z,18.575
2022-11-22T17:34:17.202Z,21.875
2022-11-22T17:37:17.578Z,6.425
2022-11-22T17:41:16.465Z,7.1375
2022-11-22T17:44:17.556Z,6.25
2022-11-22T17:47:16.663Z,4.025
2022-11-22T17:51:16.203Z,4.0375
2022-11-22T17:54:17.082Z,4.0375
2022-11-22T17:57:16.795Z,2.0124999999999997
2022-11-22T18:01:18.102Z,4.6375
2022-11-22T18:04:18.161Z,2.6
2022-11-22T18:07:16.840Z,1.925
2022-11-22T18:11:17.017Z,7.0875
2022-11-22T18:14:16.938Z,3.1374999999999997
2022-11-22T18:17:16.653Z,2.7375000000000003
2022-11-22T18:21:17.771Z,2.7375
2022-11-22T18:24:17.739Z,0.8625
2022-11-22T18:27:17.838Z,1.1
2022-11-22T18:31:16.617Z,2.45
2022-11-22T18:34:17.778Z,2.175
2022-11-22T18:37:16.948Z,1.6875
2022-11-22T18:41:17.491Z,7.05
2022-11-22T18:44:16.625Z,2.4125
2022-11-22T18:47:17.258Z,3.3
2022-11-22T18:51:16.307Z,3.5749999999999997
2022-11-22T18:54:18.297Z,9.6625
2022-11-22T18:57:17.108Z,3.7375000000000003
2022-11-22T19:01:19.119Z,5.6625000000000005
2022-11-22T19:04:17.230Z,7.3375
2022-11-22T19:07:17.495Z,2.3
2022-11-22T19:11:17.413Z,5.9875
2022-11-22T19:14:17.259Z,6.487500000000001
2022-11-22T19:17:21.871Z,1.8875000000000002
2022-11-22T19:21:20.046Z,1.7
2022-11-22T19:24:18.931Z,2.8375000000000004
2022-11-22T19:27:19.931Z,1.35
2022-11-22T19:31:19.216Z,3.075
2022-11-22T19:34:17.392Z,3.425
2022-11-22T19:37:17.393Z,9.1125
2022-11-22T19:41:18.340Z,4.5125
2022-11-22T19:44:16.748Z,5.175
2022-11-22T19:47:16.450Z,3.7624999999999997
2022-11-22T19:51:16.054Z,3.125
2022-11-22T19:54:16.394Z,2.5875
2022-11-22T19:57:16.759Z,3.7375
2022-11-22T20:01:18.178Z,5.55
2022-11-22T20:04:17.083Z,5.2625
2022-11-22T20:07:18.559Z,2.7875
2022-11-22T20:11:18.958Z,3.0375
2022-11-22T20:14:17.053Z,2.0625
2022-11-22T20:17:17.262Z,3.425
2022-11-22T20:21:21.806Z,11.1125
2022-11-22T20:24:16.942Z,5.7125
2022-11-22T20:27:24.495Z,4.7
2022-11-22T20:31:18.375Z,3.825
2022-11-22T20:34:16.462Z,6.8
2022-11-22T20:37:16.524Z,2.55
2022-11-22T20:41:18.693Z,2.8125
2022-11-22T20:44:18.197Z,3.4125
2022-11-22T20:47:16.692Z,3.0125
2022-11-22T20:51:18.786Z,3.5749999999999997
2022-11-22T20:54:18.378Z,4.3125
2022-11-22T20:57:17.192Z,3.5
2022-11-22T21:01:19.441Z,2.875
2022-11-22T21:04:19.491Z,7.550000000000001
2022-11-22T21:07:17.940Z,5.525
2022-11-22T21:11:21.570Z,5.7124999999999995
2022-11-22T21:14:16.996Z,4.0625
2022-11-22T21:17:41.957Z,4.9625
2022-11-22T21:21:24.746Z,2.5625
2022-11-22T21:24:16.866Z,4.5875
2022-11-22T21:27:16.633Z,5.8625
2022-11-22T21:31:16.835Z,5.0125
2022-11-22T21:34:16.346Z,3.5125
2022-11-22T21:37:17.661Z,3.55
2022-11-22T21:41:38.683Z,2.9000000000000004
2022-11-22T21:44:17.783Z,5.7375
2022-11-22T21:47:17.392Z,2.1625
2022-11-22T21:51:16.931Z,3.4375
2022-11-22T21:54:17.258Z,7.199999999999999
2022-11-22T21:57:17.216Z,5.5
2022-11-22T22:01:16.700Z,3.45
2022-11-22T22:04:17.142Z,3.1375
2022-11-22T22:07:36.476Z,2.1
2022-11-22T22:11:17.089Z,4.699999999999999
2022-11-22T22:14:26.992Z,6.375
2022-11-22T22:17:17.034Z,0.9875
2022-11-22T22:21:18.364Z,5.4125
2022-11-22T22:24:17.111Z,8.475000000000001
2022-11-22T22:27:17.313Z,4.5
2022-11-22T22:31:27.113Z,3.4625
2022-11-22T22:34:18.604Z,2.0625
2022-11-22T22:37:17.163Z,1.3625
2022-11-22T22:41:17.186Z,1.7875
2022-11-22T22:44:17.245Z,1.5625
2022-11-22T22:47:17.067Z,3.125
2022-11-22T22:51:18.123Z,11.0875
2022-11-22T22:54:16.931Z,7.699999999999999
2022-11-22T22:57:17.282Z,6.5625
2022-11-22T23:01:20.239Z,6.199999999999999
2022-11-22T23:04:17.444Z,3.6625
2022-11-22T23:07:24.449Z,3.275
2022-11-22T23:11:19.132Z,3.7375000000000003
2022-11-22T23:14:20.091Z,2.3875
2022-11-22T23:17:17.446Z,1.9625
2022-11-22T23:21:16.236Z,1.325
2022-11-22T23:24:17.300Z,2.425
2022-11-22T23:27:16.431Z,4.550000000000001
2022-11-22T23:31:16.990Z,2.1
2022-11-22T23:34:17.665Z,2.0999999999999996
2022-11-22T23:37:18.222Z,1.4125
2022-11-22T23:41:18.759Z,3.425
2022-11-22T23:44:16.835Z,2.4
2022-11-22T23:47:16.902Z,3.425
2022-11-22T23:51:16.705Z,4.0249999999999995
2022-11-22T23:54:16.861Z,4.075
2022-11-22T23:57:16.994Z,2.425
